Flight Track Log - Related Links

Times and Time Zones

All times are in EDT time to prevent confusion due to time zone crossing. See the N26141 flight status page for this flight to view local times or setup timezone preferences in your user account.

Time Position Orientation Groundspeed Altitude Reporting Facility
EDT Latitude Longitude Course Direction KTS MPH feet Rate Location/Type
Wed 06:05:12 PM 41.9167 -87.9000 173° South 186 214 3,300  Level Chicago TRACON
Wed 06:06:12 PM 41.8667 -87.8667 154° Southeast 239 275 5,000 1,250 Climbing Chicago TRACON
Wed 06:07:00 PM 41.7365 -87.6877 157° South  Level Estimated
Wed 06:07:12 PM 41.8000 -87.8333 160° South 257 296 5,800  Level Chicago TRACON
Wed 06:08:00 PM 41.6547 -87.6151 156° South  Level Estimated
Wed 06:08:55 PM 41.6831 -87.7642 156° South 269 310 10,500  Level Chicago Center
Wed 06:09:00 PM 41.5572 -87.5999 173° South  Level FlightAware Approximate
Wed 06:09:58 PM 41.6147 -87.7125 151° Southeast 280 322 12,900  Level Chicago Center
Wed 06:10:00 PM 41.4618 -87.5852 173° South  Level FlightAware Approximate
Wed 06:11:00 PM 41.5425 -87.6597 151° Southeast 292 336 15,300  Level Chicago Center
Wed 06:12:02 PM 41.4675 -87.6042 151° Southeast 303 349 17,300 1,790 Climbing Chicago Center
Wed 06:13:04 PM 41.3633 -87.5625 163° South 333 383 19,000 1,355 Climbing Chicago Center
Wed 06:14:06 PM 41.2631 -87.5442 172° South 358 412 20,100 1,065 Climbing Chicago Center
Wed 06:15:08 PM 41.1569 -87.5225 171° South 380 437 21,200 1,065 Climbing Chicago Center
Wed 06:16:10 PM 41.0456 -87.4917 168° South 403 464 22,300 871 Climbing Chicago Center
Wed 06:17:12 PM 40.9311 -87.4589 168° South 417 480 23,000 339 Climbing Chicago Center
Wed 06:18:14 PM 40.8119 -87.4269 169° South 436 502 23,000  Level Chicago Center
Wed 06:19:16 PM 40.6792 -87.3378 153° Southeast 446 513 23,000  Level Chicago Center
Wed 06:20:18 PM 40.5717 -87.2614 152° Southeast 442 509 23,000  Level Chicago Center
Wed 06:21:21 PM 40.4625 -87.1831 151° Southeast 448 516 23,000  Level Chicago Center
Wed 06:22:23 PM 40.3553 -87.1078 152° Southeast 444 511 23,000  Level Chicago Center
Wed 06:23:25 PM 40.2281 -87.0183 152° Southeast 442 509 23,000  Level Chicago Center
Wed 06:24:26 PM 40.1178 -86.9414 152° Southeast 443 510 23,000  Level Indianapolis Center
Wed 06:25:28 PM 40.0097 -86.8653 152° Southeast 441 507 23,000  Level Indianapolis Center
Wed 06:26:30 PM 39.9019 -86.7903 152° Southeast 439 505 23,000  Level Indianapolis Center
Wed 06:27:32 PM 39.7961 -86.7153 151° Southeast 434 499 23,000  Level Indianapolis Center
Wed 06:28:34 PM 39.7050 -86.6131 139° Southeast 437 503 23,000  Level Indianapolis Center
Wed 06:29:36 PM 39.6025 -86.4867 136° Southeast 440 506 23,000  Level Indianapolis Center
Wed 06:30:38 PM 39.5150 -86.3789 136° Southeast 438 504 23,000  Level Indianapolis Center
Wed 06:31:41 PM 39.4275 -86.2717 137° Southeast 435 501 23,000  Level Indianapolis Center
Wed 06:32:43 PM 39.3394 -86.1636 136° Southeast 436 502 23,000  Level Indianapolis Center
Wed 06:33:45 PM 39.2511 -86.0547 136° Southeast 438 504 23,000  Level Indianapolis Center
Wed 06:34:47 PM 39.1508 -85.9311 136° Southeast 426 490 23,000  Level Indianapolis Center
Wed 06:35:49 PM 39.0625 -85.8269 138° Southeast 428 493 23,000  Level Indianapolis Center
Wed 06:36:51 PM 38.9753 -85.7203 136° Southeast 430 495 23,000  Level Indianapolis Center
Wed 06:37:53 PM 38.8875 -85.6139 137° Southeast 432 497 23,000  Level Indianapolis Center
Wed 06:38:55 PM 38.7983 -85.5078 137° Southeast 433 498 23,000 -290 Level Indianapolis Center
Wed 06:39:57 PM 38.7100 -85.4022 137° Southeast 433 498 22,400 -919 Descending Indianapolis Center
Wed 06:40:59 PM 38.6169 -85.2903 137° Southeast 424 488 21,100 -1,694 Descending Indianapolis Center
Wed 06:42:01 PM 38.5242 -85.1797 137° Southeast 413 475 18,900 -2,371 Descending Indianapolis Center
Wed 06:43:03 PM 38.4450 -85.0872 138° Southeast 385 443 16,200 -2,952 Descending Indianapolis Center
Wed 06:44:05 PM 38.3756 -85.0014 136° Southeast 354 407 12,800 -2,710 Descending Indianapolis Center
Wed 06:45:07 PM 38.3097 -84.9261 138° Southeast 325 374 10,600 -1,742 Descending Indianapolis Center
Wed 06:46:09 PM 38.2542 -84.8622 138° Southeast 278 320 9,200 -1,597 Descending Indianapolis Center
Wed 06:47:11 PM 38.1944 -84.7911 137° Southeast 256 295 7,300 -1,742 Descending Indianapolis Center
Wed 06:48:13 PM 38.1333 -84.7625 160° South 247 284 5,600 -1,452 Descending Indianapolis Center
Wed 06:49:15 PM 38.0631 -84.7611 179° South 252 290 4,300 -1,258 Descending Indianapolis Center

Login

Don't have an account? Register now (free) for customized features, flight alerts, and more!